createdAt,value
2022-12-14T00:01:54.083Z,71.47
2022-12-14T00:04:56.050Z,172.90
2022-12-14T00:07:58.224Z,103.93
2022-12-14T00:11:00.086Z,92.07
2022-12-14T00:14:04.330Z,90.67
2022-12-14T00:17:06.251Z,72.93
2022-12-14T00:20:08.774Z,76.03
2022-12-14T00:23:11.714Z,77.50
2022-12-14T00:26:18.194Z,71.77
2022-12-14T00:29:20.173Z,76.87
2022-12-14T00:32:22.344Z,64.80
2022-12-14T00:35:24.270Z,67.07
2022-12-14T00:38:27.011Z,69.80
2022-12-14T00:41:29.241Z,70.60
2022-12-14T00:44:31.947Z,82.53
2022-12-14T00:47:40.374Z,70.50
2022-12-14T00:50:48.614Z,71.50
2022-12-14T00:53:50.852Z,71.13
2022-12-14T00:56:53.078Z,66.03
2022-12-14T00:59:54.932Z,70.17
2022-12-14T01:02:57.165Z,73.83
2022-12-14T01:06:02.854Z,69.67
2022-12-14T01:09:05.057Z,71.37
2022-12-14T01:12:07.094Z,67.13
2022-12-14T01:15:09.824Z,66.00
2022-12-14T01:18:11.819Z,66.20
2022-12-14T01:21:19.967Z,71.27
2022-12-14T01:24:21.857Z,71.83
2022-12-14T01:27:24.041Z,76.60
2022-12-14T01:30:25.935Z,76.93
2022-12-14T01:33:29.904Z,69.07
2022-12-14T01:36:34.571Z,66.90
2022-12-14T01:39:36.757Z,75.13
2022-12-14T01:42:38.968Z,72.37
2022-12-14T01:45:43.186Z,68.87
2022-12-14T01:48:47.403Z,67.83
2022-12-14T01:51:59.717Z,76.83
2022-12-14T01:55:19.080Z,75.20
2022-12-14T01:58:26.721Z,71.23
2022-12-14T02:01:28.717Z,72.77
2022-12-14T02:04:31.548Z,60.60
2022-12-14T02:07:33.868Z,70.03
2022-12-14T02:10:36.490Z,62.37
2022-12-14T02:13:42.366Z,61.60
2022-12-14T02:16:44.594Z,61.63
2022-12-14T02:19:49.290Z,63.50
2022-12-14T02:23:33.966Z,61.97
2022-12-14T02:27:03.422Z,73.47
2022-12-14T02:30:25.950Z,72.83
2022-12-14T02:33:57.855Z,74.97
2022-12-14T02:37:19.135Z,67.97
2022-12-14T02:40:54.232Z,66.47
2022-12-14T02:44:20.748Z,64.00
2022-12-14T02:47:26.172Z,67.87
2022-12-14T02:50:45.482Z,67.30
2022-12-14T02:54:08.295Z,68.37
2022-12-14T02:57:28.470Z,70.17
2022-12-14T03:00:33.983Z,63.17
2022-12-14T03:03:36.242Z,67.13
2022-12-14T03:06:38.274Z,64.40
2022-12-14T03:09:40.592Z,66.07
2022-12-14T03:12:48.017Z,65.90
2022-12-14T03:16:13.727Z,70.50
2022-12-14T03:19:18.640Z,64.90
2022-12-14T03:22:35.019Z,61.37
2022-12-14T03:25:49.143Z,63.70
2022-12-14T03:29:06.629Z,71.03
2022-12-14T03:32:13.939Z,69.13
2022-12-14T03:35:27.894Z,70.70
2022-12-14T03:38:32.719Z,69.70
2022-12-14T03:41:59.252Z,62.87
2022-12-14T03:45:23.703Z,60.60
2022-12-14T03:48:43.129Z,63.00
2022-12-14T03:52:03.554Z,66.03
2022-12-14T03:55:27.585Z,67.70
2022-12-14T03:58:43.662Z,67.00
2022-12-14T04:01:50.575Z,64.77
2022-12-14T04:05:07.904Z,66.70
2022-12-14T04:08:28.771Z,68.57
2022-12-14T04:11:55.029Z,60.20
2022-12-14T04:15:26.589Z,57.47
2022-12-14T04:18:59.549Z,56.77
2022-12-14T04:22:07.232Z,64.63
2022-12-14T04:25:41.709Z,59.27
2022-12-14T04:29:12.041Z,63.83
2022-12-14T04:32:47.233Z,61.60
2022-12-14T04:35:51.996Z,62.87
2022-12-14T04:39:08.355Z,60.57
2022-12-14T04:42:13.522Z,61.93
2022-12-14T04:45:21.857Z,61.73
2022-12-14T04:48:32.211Z,64.27
2022-12-14T04:51:43.080Z,69.83
2022-12-14T04:55:09.939Z,66.97
2022-12-14T04:58:22.728Z,59.10
2022-12-14T05:01:52.931Z,61.80
2022-12-14T05:05:11.777Z,64.63
2022-12-14T05:08:38.897Z,62.77
2022-12-14T05:12:03.260Z,65.93
2022-12-14T05:15:13.836Z,73.13
2022-12-14T05:18:19.378Z,65.53
2022-12-14T05:21:40.009Z,55.50
2022-12-14T05:24:44.546Z,60.30
2022-12-14T05:27:46.804Z,59.37
2022-12-14T05:30:48.983Z,54.57
2022-12-14T05:33:51.531Z,59.23
2022-12-14T05:36:53.493Z,56.63
2022-12-14T05:39:55.850Z,58.73
2022-12-14T05:43:07.704Z,62.13
2022-12-14T05:46:14.225Z,59.03
2022-12-14T05:49:16.503Z,57.90
2022-12-14T05:52:19.059Z,56.57
2022-12-14T05:55:21.265Z,55.83
2022-12-14T05:58:23.429Z,65.80
2022-12-14T06:01:25.432Z,71.57
2022-12-14T06:04:27.860Z,62.30
2022-12-14T06:07:29.782Z,65.60
2022-12-14T06:10:32.093Z,67.53
2022-12-14T06:13:38.051Z,72.23
2022-12-14T06:16:41.807Z,62.73
2022-12-14T06:19:49.825Z,69.87
2022-12-14T06:22:54.966Z,66.47
2022-12-14T06:25:56.967Z,61.67
2022-12-14T06:28:59.814Z,66.00
2022-12-14T06:32:01.697Z,65.90
2022-12-14T06:35:04.376Z,65.80
2022-12-14T06:38:06.244Z,80.73
2022-12-14T06:41:09.363Z,74.43
2022-12-14T06:44:14.178Z,69.27
2022-12-14T06:47:18.821Z,67.97
2022-12-14T06:50:20.715Z,71.83
2022-12-14T06:53:23.237Z,94.37
2022-12-14T06:56:27.520Z,73.43
2022-12-14T06:59:30.406Z,75.47
2022-12-14T07:02:32.475Z,73.40
2022-12-14T07:05:34.873Z,71.17
2022-12-14T07:08:38.746Z,65.07
2022-12-14T07:11:41.329Z,75.83
2022-12-14T07:14:43.248Z,68.33
2022-12-14T07:17:45.486Z,84.17
2022-12-14T07:21:02.908Z,76.17
2022-12-14T07:24:05.435Z,132.90
2022-12-14T07:27:07.669Z,77.30
2022-12-14T07:30:11.539Z,63.97
2022-12-14T07:33:13.455Z,72.97
2022-12-14T07:36:18.261Z,73.70
2022-12-14T07:39:21.564Z,64.20
2022-12-14T07:42:23.811Z,72.43
2022-12-14T07:45:26.913Z,111.13
2022-12-14T07:48:29.701Z,75.47
2022-12-14T07:51:35.870Z,71.33
2022-12-14T07:54:38.145Z,76.43
2022-12-14T07:57:40.075Z,75.70
2022-12-14T08:00:42.375Z,81.87
2022-12-14T08:03:47.380Z,78.70
2022-12-14T08:06:49.610Z,72.40
2022-12-14T08:09:51.540Z,77.80
2022-12-14T08:12:54.692Z,75.30
2022-12-14T08:15:56.950Z,79.73
2022-12-14T08:19:00.257Z,70.27
2022-12-14T08:22:02.174Z,69.13
2022-12-14T08:25:04.637Z,79.83
2022-12-14T08:28:06.580Z,69.77
2022-12-14T08:31:13.061Z,74.73
2022-12-14T08:34:21.909Z,70.37
2022-12-14T08:37:24.188Z,72.23
2022-12-14T08:40:26.774Z,72.83
2022-12-14T08:43:29.329Z,72.33
2022-12-14T08:46:33.143Z,67.50
2022-12-14T08:49:35.612Z,80.57
2022-12-14T08:52:38.470Z,69.83
2022-12-14T08:55:40.718Z,79.13
2022-12-14T08:58:43.518Z,67.77
2022-12-14T09:01:45.845Z,73.33
2022-12-14T09:04:47.887Z,74.30
2022-12-14T09:07:50.052Z,79.30
2022-12-14T09:10:52.512Z,78.10
2022-12-14T09:13:55.861Z,78.03
2022-12-14T09:16:58.761Z,79.63
2022-12-14T09:20:02.013Z,83.90
2022-12-14T09:23:04.204Z,74.13
2022-12-14T09:26:06.425Z,71.23
2022-12-14T09:29:12.381Z,77.97
2022-12-14T09:32:14.585Z,76.93
2022-12-14T09:35:16.569Z,95.43
2022-12-14T09:38:20.342Z,77.80
2022-12-14T09:41:35.339Z,82.10
2022-12-14T09:44:52.172Z,74.67
2022-12-14T09:48:02.984Z,85.10
2022-12-14T09:51:05.345Z,81.43
2022-12-14T09:54:15.386Z,80.13
2022-12-14T09:57:36.613Z,79.77
2022-12-14T10:00:49.619Z,85.37
2022-12-14T10:04:16.095Z,86.07
2022-12-14T10:07:34.312Z,89.07
2022-12-14T10:10:36.659Z,77.73
2022-12-14T10:13:44.692Z,84.63
2022-12-14T10:17:07.146Z,88.90
2022-12-14T10:20:40.070Z,88.17
2022-12-14T10:23:57.150Z,78.70
2022-12-14T10:27:00.113Z,91.77
2022-12-14T10:30:07.930Z,91.33
2022-12-14T10:33:29.767Z,88.53
2022-12-14T10:36:44.433Z,96.77
2022-12-14T10:40:34.112Z,96.27
2022-12-14T10:44:19.705Z,86.07
2022-12-14T10:47:39.447Z,89.53
2022-12-14T10:51:05.484Z,91.90
2022-12-14T10:54:57.170Z,84.40
2022-12-14T10:58:00.838Z,91.13
2022-12-14T11:01:02.982Z,82.80
2022-12-14T11:04:07.124Z,88.53
2022-12-14T11:07:12.022Z,87.20
2022-12-14T11:10:19.293Z,85.37
2022-12-14T11:13:23.133Z,102.10
2022-12-14T11:16:36.415Z,92.63
2022-12-14T11:19:38.934Z,89.03
2022-12-14T11:23:28.466Z,91.23
2022-12-14T11:26:42.928Z,85.27
2022-12-14T11:29:49.284Z,94.73
2022-12-14T11:32:51.833Z,90.60
2022-12-14T11:35:54.173Z,89.53
2022-12-14T11:39:00.096Z,91.23
2022-12-14T11:42:05.625Z,91.90
2022-12-14T11:45:29.070Z,87.50
2022-12-14T11:48:36.844Z,98.70
2022-12-14T11:51:53.241Z,87.80
2022-12-14T11:54:55.394Z,94.00
2022-12-14T11:58:00.796Z,93.27
2022-12-14T12:01:06.405Z,92.10
2022-12-14T12:04:17.433Z,100.30
2022-12-14T12:07:36.260Z,99.03
2022-12-14T12:10:42.413Z,100.13
2022-12-14T12:13:50.808Z,93.17
2022-12-14T12:16:53.321Z,94.93
2022-12-14T12:19:55.482Z,91.57
2022-12-14T12:23:05.711Z,99.27
2022-12-14T12:26:23.433Z,97.70
2022-12-14T12:29:43.372Z,93.93
2022-12-14T12:32:51.756Z,96.27
2022-12-14T12:35:56.450Z,96.70
2022-12-14T12:39:01.445Z,98.80
2022-12-14T12:42:21.454Z,101.53
2022-12-14T12:45:51.427Z,97.87
2022-12-14T12:49:10.628Z,106.23
2022-12-14T12:52:23.054Z,92.53
2022-12-14T12:55:26.030Z,91.20
2022-12-14T12:58:34.006Z,87.17
2022-12-14T13:01:40.530Z,102.07
2022-12-14T13:04:52.160Z,101.23
2022-12-14T13:08:06.928Z,91.57
2022-12-14T13:11:27.717Z,107.57
2022-12-14T13:14:41.227Z,93.17
2022-12-14T13:17:51.873Z,90.23
2022-12-14T13:20:54.976Z,92.63
2022-12-14T13:23:57.471Z,98.53
2022-12-14T13:27:17.408Z,101.13
2022-12-14T13:30:32.142Z,111.37
2022-12-14T13:34:11.534Z,105.83
2022-12-14T13:37:31.883Z,111.93
2022-12-14T13:41:03.879Z,101.03
2022-12-14T13:44:43.851Z,130.57
2022-12-14T13:47:59.338Z,103.27
2022-12-14T13:51:07.292Z,97.07
2022-12-14T13:54:40.116Z,103.03
2022-12-14T13:57:54.821Z,96.37
2022-12-14T14:01:01.342Z,103.67
2022-12-14T14:04:15.395Z,96.97
2022-12-14T14:07:23.573Z,103.57
2022-12-14T14:10:38.921Z,114.97
2022-12-14T14:13:42.789Z,96.20
2022-12-14T14:16:55.972Z,97.30
2022-12-14T14:19:59.166Z,105.93
2022-12-14T14:23:16.861Z,108.37
2022-12-14T14:26:24.972Z,113.37
2022-12-14T14:29:31.589Z,105.47
2022-12-14T14:32:38.657Z,121.57
2022-12-14T14:35:40.870Z,130.07
2022-12-14T14:38:43.296Z,113.50
2022-12-14T14:41:52.276Z,124.70
2022-12-14T14:44:58.251Z,123.03
2022-12-14T14:48:21.662Z,127.90
2022-12-14T14:56:54.658Z,116.57
2022-12-14T15:00:02.299Z,124.47
2022-12-14T15:03:12.316Z,140.23
2022-12-14T15:06:18.017Z,125.57
2022-12-14T15:10:44.404Z,136.77
2022-12-14T15:14:26.474Z,120.13
2022-12-14T15:18:18.589Z,118.30
2022-12-14T15:22:04.293Z,130.83
2022-12-14T15:25:32.773Z,141.43
2022-12-14T15:28:44.586Z,137.57
2022-12-14T15:31:53.447Z,132.70
2022-12-14T15:35:26.318Z,120.97
2022-12-14T15:38:32.270Z,130.70
2022-12-14T15:42:10.663Z,128.93
2022-12-14T15:50:07.229Z,107.07
2022-12-14T15:53:34.776Z,120.70
2022-12-14T15:56:40.650Z,120.73
2022-12-14T15:59:44.653Z,120.40
2022-12-14T16:02:49.521Z,105.00
2022-12-14T16:05:53.201Z,114.40
2022-12-14T16:09:15.767Z,103.97
2022-12-14T16:12:30.982Z,105.60
2022-12-14T16:15:33.174Z,109.70
2022-12-14T16:18:39.753Z,135.47
2022-12-14T16:21:43.366Z,135.67
2022-12-14T16:25:19.042Z,114.27
2022-12-14T16:28:25.756Z,128.43
2022-12-14T16:31:29.739Z,121.90
2022-12-14T16:34:33.412Z,114.00
2022-12-14T16:37:35.652Z,97.90
2022-12-14T16:40:40.567Z,117.07
2022-12-14T16:43:55.967Z,107.00
2022-12-14T16:47:00.696Z,104.20
2022-12-14T16:50:47.651Z,100.97
2022-12-14T16:54:09.540Z,113.70
2022-12-14T16:57:21.096Z,92.77
2022-12-14T17:00:23.133Z,96.23
2022-12-14T17:03:27.376Z,90.60
2022-12-14T17:06:38.442Z,90.47
2022-12-14T17:09:40.606Z,98.53
2022-12-14T17:12:43.985Z,90.30
2022-12-14T17:16:00.193Z,84.63
2022-12-14T17:19:03.962Z,89.87
2022-12-14T17:22:13.974Z,95.17
2022-12-14T17:25:15.956Z,104.57
2022-12-14T17:28:44.274Z,87.00
2022-12-14T17:31:47.797Z,86.17
2022-12-14T17:34:54.442Z,80.77
2022-12-14T17:37:57.173Z,91.57
2022-12-14T17:40:59.638Z,87.33
2022-12-14T17:44:07.152Z,87.87
2022-12-14T17:47:32.749Z,79.87
2022-12-14T17:50:38.706Z,81.57
2022-12-14T17:53:43.880Z,89.60
2022-12-14T17:56:46.420Z,96.13
2022-12-14T17:59:49.450Z,91.87
2022-12-14T18:02:51.961Z,82.80
2022-12-14T18:06:01.891Z,88.80
2022-12-14T18:09:07.102Z,83.73
2022-12-14T18:12:24.194Z,90.57
2022-12-14T18:15:30.915Z,90.63
2022-12-14T18:18:37.498Z,91.90
2022-12-14T18:21:39.384Z,85.97
2022-12-14T18:24:41.649Z,92.57
2022-12-14T18:27:43.527Z,90.27
2022-12-14T18:30:51.165Z,107.20
2022-12-14T18:33:53.378Z,92.87
2022-12-14T18:36:55.582Z,87.53
2022-12-14T18:39:57.475Z,80.57
2022-12-14T18:42:59.671Z,103.93
2022-12-14T18:46:01.813Z,86.80
2022-12-14T18:49:04.078Z,88.63
2022-12-14T18:52:11.822Z,87.30
2022-12-14T18:55:21.310Z,91.87
2022-12-14T18:58:26.018Z,98.80
2022-12-14T19:01:28.509Z,95.17
2022-12-14T19:04:30.453Z,90.27
2022-12-14T19:07:32.659Z,99.20
2022-12-14T19:10:35.426Z,96.70
2022-12-14T19:13:38.171Z,94.13
2022-12-14T19:16:40.404Z,128.90
2022-12-14T19:19:44.565Z,102.93
2022-12-14T19:22:48.008Z,106.80
2022-12-14T19:25:50.329Z,101.17
2022-12-14T19:28:52.307Z,97.83
2022-12-14T19:31:56.213Z,103.07
2022-12-14T19:35:00.475Z,94.20
2022-12-14T19:38:02.637Z,101.60
2022-12-14T19:41:11.237Z,116.40
2022-12-14T19:44:13.774Z,109.33
2022-12-14T19:47:15.813Z,115.93
2022-12-14T19:50:18.149Z,103.57
2022-12-14T19:53:27.791Z,123.80
2022-12-14T19:56:30.045Z,111.57
2022-12-14T19:59:31.927Z,103.47
2022-12-14T20:02:34.346Z,102.93
2022-12-14T20:05:36.463Z,111.00
2022-12-14T20:08:38.904Z,100.73
2022-12-14T20:11:41.118Z,102.10
2022-12-14T20:14:47.236Z,117.07
2022-12-14T20:17:51.545Z,116.90
2022-12-14T20:20:53.853Z,125.60
2022-12-14T20:23:59.229Z,111.77
2022-12-14T20:27:01.504Z,111.63
2022-12-14T20:30:04.382Z,149.57
2022-12-14T20:33:06.552Z,133.30
2022-12-14T20:36:09.427Z,123.97
2022-12-14T20:39:14.524Z,134.27
2022-12-14T20:42:21.810Z,118.43
2022-12-14T20:45:25.142Z,175.40
2022-12-14T20:48:27.033Z,121.83
2022-12-14T20:51:31.312Z,111.37
2022-12-14T20:54:34.940Z,98.63
2022-12-14T20:57:37.161Z,105.83
2022-12-14T21:00:42.594Z,103.60
2022-12-14T21:03:48.572Z,110.27
2022-12-14T21:06:50.578Z,117.93
2022-12-14T21:09:53.701Z,109.77
2022-12-14T21:12:57.317Z,107.97
2022-12-14T21:16:02.742Z,115.73
2022-12-14T21:19:05.286Z,99.30
2022-12-14T21:22:10.202Z,102.47
2022-12-14T21:25:12.076Z,95.10
2022-12-14T21:28:14.261Z,96.13
2022-12-14T21:31:16.437Z,107.20
2022-12-14T21:34:22.400Z,100.77
2022-12-14T21:41:35.274Z,99.43
2022-12-14T21:44:49.577Z,96.20
2022-12-14T21:47:51.466Z,102.43
2022-12-14T21:50:56.375Z,98.90
2022-12-14T21:54:01.330Z,102.47
2022-12-14T21:57:22.212Z,112.77
2022-12-14T22:00:24.163Z,117.03
2022-12-14T22:03:26.409Z,108.07
2022-12-14T22:06:28.626Z,106.97
2022-12-14T22:09:30.925Z,110.30
2022-12-14T22:12:33.010Z,111.93
2022-12-14T22:15:36.023Z,105.33
2022-12-14T22:18:45.223Z,108.60
2022-12-14T22:21:49.381Z,106.07
2022-12-14T22:24:51.864Z,103.33
2022-12-14T22:27:56.129Z,113.63
2022-12-14T22:31:04.793Z,106.97
2022-12-14T22:34:08.863Z,118.33
2022-12-14T22:37:14.984Z,108.43
2022-12-14T22:40:17.192Z,105.63
2022-12-14T22:43:23.144Z,110.43
2022-12-14T22:46:30.496Z,96.00
2022-12-14T22:49:32.646Z,98.03
2022-12-14T22:52:34.906Z,89.87
2022-12-14T22:55:38.605Z,96.03
2022-12-14T22:58:42.173Z,100.20
2022-12-14T23:01:50.099Z,109.37
2022-12-14T23:04:52.795Z,100.80
2022-12-14T23:07:54.696Z,100.73
2022-12-14T23:11:15.461Z,103.73
2022-12-14T23:14:36.428Z,94.80
2022-12-14T23:17:57.393Z,103.57
2022-12-14T23:21:18.370Z,100.57
2022-12-14T23:24:39.374Z,115.07
2022-12-14T23:27:59.718Z,160.47
2022-12-14T23:31:20.692Z,169.30
2022-12-14T23:34:41.028Z,194.53
2022-12-14T23:38:01.834Z,133.60
2022-12-14T23:41:22.395Z,156.70
2022-12-14T23:44:43.202Z,191.47
2022-12-14T23:48:03.710Z,152.77
2022-12-14T23:51:24.721Z,186.60
2022-12-14T23:54:45.211Z,170.60
2022-12-14T23:58:06.096Z,201.63
